Weather reports worldwide

Advertisment
Alto De Los Leones, Spain (8217): temperature & dewpoint: 19.03.2019 18:00:00 - 25.03.2019 18:00:00 (CET)Alto De Los Leones, Spain (8217): wind speed & gusts: 19.03.2019 18:00:00 - 25.03.2019 18:00:00 (CET)Alto De Los Leones, Spain (8217): wind direction: 19.03.2019 18:00:00 - 25.03.2019 18:00:00 (CET)Alto De Los Leones, Spain (8217): precipitation: 19.03.2019 18:00:00 - 25.03.2019 18:00:00 (CET)
Date & Time tt [°C] td [°C] ff [km/h] ff [kn] fx [km/h] fx [kn] dd rr [mm]
25.03.2019 18:00:00 - - - - - - - -
25.03.2019 17:00:00 12,2 -5,7 16 9 29 16 NE 0,0
25.03.2019 16:00:00 12,9 -5,1 19 11 37 20 NNE 0,0
25.03.2019 15:00:00 11,4 -5,7 15 8 31 17 NE 0,0
25.03.2019 14:00:00 11,5 -5,1 13 7 36 19 NE 0,0
25.03.2019 13:00:00 10,5 -5,4 20 11 39 21 NNW -
25.03.2019 12:00:00 10,4 -5,7 20 11 33 18 N 0,0
25.03.2019 11:00:00 9,9 -6,0 16 9 25 13 NE 0,0
25.03.2019 10:00:00 8,9 -8,2 4 2 13 7 SSW 0,0
25.03.2019 09:00:00 7,8 -8,6 9 5 16 9 S 0,0
25.03.2019 08:00:00 6,7 -8,6 11 6 17 9 E 0,0
25.03.2019 07:00:00 4,4 -8,6 10 5 17 9 S -
25.03.2019 06:00:00 4,8 -8,2 12 6 23 12 S 0,0
25.03.2019 05:00:00 4,9 -8,2 15 8 29 16 S 0,0
25.03.2019 04:00:00 5,1 -7,8 16 9 23 13 SSW 0,0
25.03.2019 03:00:00 5,4 -8,2 15 8 31 17 S 0,0
25.03.2019 02:00:00 5,8 -9,0 17 9 29 15 SSW 0,0
25.03.2019 01:00:00 6,0 -9,9 16 9 28 15 S -
25.03.2019 00:00:00 6,6 -9,9 10 5 18 10 E 0,0
24.03.2019 23:00:00 7,6 -10,8 6 3 21 11 E 0,0
24.03.2019 22:00:00 8,5 -10,8 6 4 11 6 E 0,0
24.03.2019 21:00:00 8,9 -10,8 6 3 10 5 E 0,0
24.03.2019 20:00:00 9,2 -10,3 7 4 13 7 S 0,0
24.03.2019 19:00:00 10,7 -10,3 5 3 22 12 SSE -
24.03.2019 18:00:00 11,7 -9,9 14 7 36 20 S 0,0
24.03.2019 17:00:00 12,2 -10,8 16 9 40 22 S 0,0
24.03.2019 16:00:00 12,7 -9,9 16 9 41 22 S 0,0
24.03.2019 15:00:00 12,4 -9,4 14 8 35 19 S 0,0
24.03.2019 14:00:00 12,2 -9,4 19 10 36 20 S 0,0
24.03.2019 13:00:00 11,5 -6,7 19 10 39 21 S -
24.03.2019 12:00:00 10,9 -6,0 19 10 36 20 S 0,0
24.03.2019 11:00:00 8,9 -5,4 18 10 34 18 S 0,0
24.03.2019 10:00:00 8,1 -5,1 13 7 26 14 S 0,0
24.03.2019 09:00:00 6,3 -5,7 11 6 24 13 SSE 0,0
24.03.2019 08:00:00 5,2 -5,1 7 4 16 8 S 0,0
24.03.2019 07:00:00 3,7 -6,0 10 5 21 12 S -
24.03.2019 06:00:00 3,2 -5,4 8 5 17 9 S 0,0
24.03.2019 05:00:00 3,2 -4,8 10 5 18 10 SSW 0,0
24.03.2019 04:00:00 3,5 -4,5 7 4 19 10 S 0,0
24.03.2019 03:00:00 4,7 -3,9 10 5 20 11 S 0,0
24.03.2019 02:00:00 5,0 -3,9 10 5 18 10 SSW 0,0
24.03.2019 01:00:00 5,4 -4,2 10 6 20 11 S -
24.03.2019 00:00:00 6,2 -4,5 10 6 22 12 SSW 0,0
23.03.2019 23:00:00 6,5 -5,4 8 4 19 10 SW 0,0
23.03.2019 22:00:00 7,3 -6,0 8 4 20 11 S 0,0
23.03.2019 21:00:00 8,4 -6,0 8 4 22 12 SSW 0,0
23.03.2019 20:00:00 8,8 -6,7 5 3 17 9 S 0,0
23.03.2019 19:00:00 9,4 -6,7 8 4 23 13 SSW -
23.03.2019 18:00:00 10,5 -7,5 9 5 35 19 ESE 0,0
23.03.2019 17:00:00 11,9 -7,1 14 8 35 19 SW 0,0
23.03.2019 16:00:00 11,0 -7,5 16 9 35 19 S 0,0
23.03.2019 15:00:00 11,7 -7,1 18 10 36 19 ESE 0,0
23.03.2019 14:00:00 11,3 -6,0 18 10 38 21 SSW 0,0
23.03.2019 13:00:00 9,9 -5,7 3 1 37 20 WNW -
23.03.2019 12:00:00 9,8 -5,4 21 12 42 23 SE 0,0
23.03.2019 11:00:00 8,9 -5,4 14 7 32 18 SE 0,0
23.03.2019 10:00:00 7,9 -5,1 16 9 29 16 S 0,0
23.03.2019 09:00:00 6,5 -4,2 9 5 15 8 S 0,0
23.03.2019 08:00:00 3,8 -3,6 6 3 12 6 S 0,0
23.03.2019 07:00:00 2,5 -4,2 9 5 16 9 S -
23.03.2019 06:00:00 2,9 -4,2 8 5 17 9 S 0,0
23.03.2019 05:00:00 2,5 -4,2 12 6 19 10 S 0,0
23.03.2019 04:00:00 2,5 -4,8 10 6 21 11 S 0,0
23.03.2019 03:00:00 2,6 -5,4 11 6 21 12 S 0,0
23.03.2019 02:00:00 3,3 -5,4 11 6 17 9 S 0,0
23.03.2019 01:00:00 3,5 -6,7 10 5 20 11 S -
23.03.2019 00:00:00 4,4 -7,1 10 5 27 14 S 0,0
22.03.2019 23:00:00 5,9 -9,4 8 5 13 7 S 0,0
22.03.2019 22:00:00 6,2 -10,3 6 3 11 6 S 0,0
22.03.2019 21:00:00 6,4 -10,3 6 3 12 6 S 0,0
22.03.2019 20:00:00 6,7 -10,3 6 3 18 10 S 0,0
22.03.2019 19:00:00 7,8 -10,8 10 5 21 12 S -
22.03.2019 18:00:00 9,6 -9,4 9 5 26 14 S 0,0
22.03.2019 17:00:00 9,7 -9,9 14 7 26 14 S 0,0
22.03.2019 16:00:00 9,7 -9,4 14 7 27 14 SSE 0,0
22.03.2019 15:00:00 9,6 -9,0 12 6 29 16 SSE 0,0
22.03.2019 14:00:00 8,9 -8,6 10 6 24 13 SSE 0,0
22.03.2019 13:00:00 8,2 -9,0 13 7 24 13 SSE -
22.03.2019 12:00:00 7,1 -9,4 11 6 26 14 SSE 0,0
22.03.2019 11:00:00 6,7 -10,3 12 6 21 11 SSE 0,0
22.03.2019 10:00:00 5,9 -10,8 8 4 14 7 SSE 0,0
22.03.2019 09:00:00 3,5 -10,3 5 3 8 5 SSE 0,0
22.03.2019 08:00:00 2,9 -10,3 2 1 11 6 SSE 0,0
22.03.2019 07:00:00 -0,3 -10,3 10 5 13 7 SSE -
22.03.2019 06:00:00 -0,2 -10,8 10 6 15 8 SSE 0,0
22.03.2019 05:00:00 -0,1 -10,8 12 6 16 8 SSE 0,0
22.03.2019 04:00:00 -0,3 -10,8 11 6 14 8 SSE 0,0
22.03.2019 03:00:00 -0,8 -11,7 9 5 23 12 SSE 0,0
22.03.2019 02:00:00 0,4 -12,2 14 8 27 15 SSE 0,0
22.03.2019 01:00:00 1,4 -12,2 11 6 19 10 NE -
22.03.2019 00:00:00 2,6 -12,2 8 4 10 5 NE 0,0
21.03.2019 23:00:00 3,2 -12,8 5 3 7 4 NE 0,0
21.03.2019 22:00:00 3,2 -12,2 5 3 8 5 NE 0,0
21.03.2019 21:00:00 3,1 -12,2 5 3 12 6 WSW 0,0
21.03.2019 20:00:00 3,7 -11,2 7 4 15 8 WSW 0,0
21.03.2019 19:00:00 4,9 -9,9 9 5 18 10 SSE -
21.03.2019 18:00:00 7,1 -9,0 6 4 17 9 SSE 0,0
21.03.2019 17:00:00 7,8 -8,2 10 5 23 12 SW 0,0
21.03.2019 16:00:00 7,9 -8,2 9 5 25 14 SSW 0,0
21.03.2019 15:00:00 7,7 -7,8 13 7 28 15 S 0,0
21.03.2019 14:00:00 6,6 -7,8 12 6 29 15 S 0,0
21.03.2019 13:00:00 5,7 -7,8 14 7 29 15 S -
21.03.2019 12:00:00 5,0 -8,2 12 7 28 15 S 0,0
21.03.2019 11:00:00 3,8 -8,6 10 5 19 11 SSE 0,0
21.03.2019 10:00:00 3,9 -7,1 6 3 15 8 S 0,0
21.03.2019 09:00:00 1,5 -7,1 8 5 18 10 S 0,0
21.03.2019 08:00:00 0,2 -6,7 10 5 16 9 ESE 0,0
21.03.2019 07:00:00 -1,9 -7,5 5 3 13 7 E -
21.03.2019 06:00:00 -1,8 -9,0 10 5 21 11 SSW 0,0
21.03.2019 05:00:00 -1,8 -10,3 13 7 27 15 SSW 0,0
21.03.2019 04:00:00 -1,1 -10,8 18 10 34 18 S 0,0
21.03.2019 03:00:00 -0,2 -12,8 19 11 37 20 W 0,0
21.03.2019 02:00:00 0,9 -13,3 14 8 34 18 S 0,0
21.03.2019 01:00:00 1,2 -13,3 14 8 23 12 S -
21.03.2019 00:00:00 1,7 -13,3 12 6 23 13 S 0,0
20.03.2019 23:00:00 2,5 -13,3 13 7 24 13 SSW 0,0
20.03.2019 22:00:00 2,7 -12,8 9 5 19 10 SSE 0,0
20.03.2019 21:00:00 2,9 -11,7 5 3 11 6 NE 0,0
20.03.2019 20:00:00 3,1 -10,8 6 3 17 9 NE 0,0
20.03.2019 19:00:00 5,9 -10,8 12 7 23 12 NNE -
20.03.2019 18:00:00 7,4 -9,4 10 5 22 12 NNE 0,0
20.03.2019 17:00:00 7,1 -9,0 9 5 18 10 NNE 0,0
20.03.2019 16:00:00 7,0 -8,2 10 5 19 10 NNE 0,0
20.03.2019 15:00:00 4,5 -9,0 7 4 16 8 NE 0,0
20.03.2019 14:00:00 5,2 -9,0 5 3 16 9 E 0,0
20.03.2019 13:00:00 4,1 -7,8 7 4 22 12 N -
20.03.2019 12:00:00 2,3 -7,5 11 6 22 12 NE 0,0
20.03.2019 11:00:00 0,5 -6,7 10 6 16 9 NE 0,0
20.03.2019 10:00:00 -1,8 -5,4 10 5 16 9 NE 0,0
20.03.2019 09:00:00 -3,0 -5,4 12 7 19 10 ENE 0,0
20.03.2019 08:00:00 -3,3 -5,7 13 7 21 11 ENE 0,0
20.03.2019 07:00:00 -3,5 -5,7 16 8 24 13 ENE -
20.03.2019 06:00:00 -3,4 -5,7 17 9 28 15 NE 0,0
20.03.2019 05:00:00 -3,5 -5,7 19 10 35 19 NE 0,0
20.03.2019 04:00:00 -3,3 -6,0 17 9 29 16 NE 0,0
20.03.2019 03:00:00 -2,9 -5,7 16 9 23 13 NE 0,0
20.03.2019 02:00:00 -2,5 -5,7 16 9 26 14 N 0,0
20.03.2019 01:00:00 -1,9 -6,7 17 9 29 15 NE -
20.03.2019 00:00:00 -1,4 -7,5 19 10 27 15 NE 0,0
19.03.2019 23:00:00 -0,9 -7,8 15 8 42 23 NE 0,0
19.03.2019 22:00:00 0,0 -7,5 21 12 48 26 NNE 0,0
19.03.2019 21:00:00 0,8 -7,1 24 13 45 24 NNE 0,0
19.03.2019 20:00:00 1,8 -6,7 19 10 45 24 NNE 0,0
19.03.2019 19:00:00 2,7 -6,7 29 15 49 26 NE -
19.03.2019 18:00:00 5,1 -7,1 24 13 45 24 NE 0,0

tt = temperature
td = dewpoint
ff = wind speed
fx = gusts
dd = wind direction
rr = precipitation

Next stations